Terminal Aerodrome Forecast
Issued by NWS

Home | Current Version | Previous Version | Text Only | Print | Product List | Glossary Off
Versions: 1 2 3 4 5 6 7 8 9 10 11 12 13 14 15 16

000
FTUS43 KOAX 221148
TAFCDR
TAF
KCDR 221148Z 2212/2312 30020G30KT P6SM OVC070
     FM221600 31025G38KT P6SM BKN050 BKN100
     FM230200 31028G40KT 5SM -SN BKN025 OVC050=

USA.gov is the U.S. government's official web portal to all federal, state and local government web resources and services.